KTRM/TRM METAR and TAF weather

Enter ICAO airport designator
Station Type Date Time Source
KTRM METAR 2022/12/05 14:52 UTC NOAA

KTRM 051452Z AUTO 34004KT 10SM CLR 06/05 A2998 RMK AO2 SLP152 T00610050 53006


Station Type Date Time Source
KTRM Decoded METAR 2022/12/05 14:52 UTC NOAA

Palm Springs, Jacqueline Cochran Regional Airport, CA, United States (KTRM) 33-37-36N 116-09-34W
Dec 05, 2022 - 09:52 AM EST / 2022.12.05 1452 UTC
Wind: from the NNW (340 degrees) at 5 MPH (4 KT):0
Visibility: 10 mile(s):0
Sky conditions: clear
Temperature: 43.0 F (6.1 C)
Dew Point: 41.0 F (5.0 C)
Relative Humidity: 92%
Pressure (altimeter): 29.98 in. Hg (1015 hPa)
Pressure tendency: 0.02 inches (0.6 hPa) higher than three hours ago
ob: KTRM 051452Z AUTO 34004KT 10SM CLR 06/05 A2998 RMK AO2 SLP152 T00610050 53006
cycle: 15

Station Type Date Time Source
KTRM TAF 2022/12/05 12:36 UTC NOAA

TAF KTRM 051134Z 0512/0612 VRB04KT P6SM BKN200
FM052200 34007KT P6SM BKN250
FM060300 32011KT P6SM BKN250

Example: see airport list